createdAt,value
2017-11-06T00:00:49.133Z,86.90
2017-11-06T00:03:50.559Z,86.90
2017-11-06T00:06:51.962Z,86.70
2017-11-06T00:09:53.400Z,87.20
2017-11-06T00:12:54.933Z,87.10
2017-11-06T00:15:56.374Z,87.10
2017-11-06T00:18:57.815Z,87.50
2017-11-06T00:21:59.212Z,87.20
2017-11-06T00:25:00.668Z,87.10
2017-11-06T00:28:02.064Z,87.70
2017-11-06T00:31:03.541Z,87.80
2017-11-06T00:34:04.982Z,88.00
2017-11-06T00:37:06.367Z,88.40
2017-11-06T00:40:07.830Z,88.60
2017-11-06T00:43:09.247Z,87.90
2017-11-06T00:46:10.699Z,87.00
2017-11-06T00:49:12.156Z,87.70
2017-11-06T00:52:13.608Z,87.30
2017-11-06T00:55:15.103Z,86.70
2017-11-06T00:58:16.472Z,87.10
2017-11-06T01:01:18.700Z,86.80
2017-11-06T01:04:20.179Z,86.60
2017-11-06T01:07:21.626Z,86.80
2017-11-06T01:10:23.037Z,86.80
2017-11-06T01:13:24.478Z,87.10
2017-11-06T01:16:25.970Z,86.80
2017-11-06T01:19:27.398Z,86.50
2017-11-06T01:22:28.892Z,87.20
2017-11-06T01:25:31.047Z,88.10
2017-11-06T01:28:32.491Z,87.30
2017-11-06T01:31:33.960Z,87.30
2017-11-06T01:34:35.447Z,86.70
2017-11-06T01:37:36.956Z,86.30
2017-11-06T01:40:38.408Z,87.00
2017-11-06T01:43:39.830Z,87.50
2017-11-06T01:46:41.235Z,87.80
2017-11-06T01:49:42.680Z,87.60
2017-11-06T01:52:44.219Z,87.70
2017-11-06T01:55:45.718Z,88.10
2017-11-06T01:58:47.948Z,88.20
2017-11-06T02:01:49.430Z,88.10
2017-11-06T02:04:51.711Z,88.60
2017-11-06T02:07:53.853Z,88.30
2017-11-06T02:10:55.357Z,88.20
2017-11-06T02:13:56.831Z,87.60
2017-11-06T02:16:58.287Z,87.40
2017-11-06T02:19:59.742Z,87.00
2017-11-06T02:23:01.239Z,87.10
2017-11-06T02:26:03.521Z,87.40
2017-11-06T02:29:05.731Z,87.30
2017-11-06T02:32:07.266Z,87.00
2017-11-06T02:35:08.761Z,87.40
2017-11-06T02:38:10.221Z,88.00
2017-11-06T02:41:11.956Z,88.10
2017-11-06T02:44:13.394Z,88.30
2017-11-06T02:47:14.871Z,88.00
2017-11-06T02:50:16.242Z,87.80
2017-11-06T02:53:20.732Z,88.20
2017-11-06T02:56:22.199Z,88.50
2017-11-06T02:59:23.660Z,88.40
2017-11-06T03:02:25.186Z,88.60
2017-11-06T03:05:26.651Z,88.60
2017-11-06T03:08:28.121Z,89.30
2017-11-06T03:11:29.537Z,89.00
2017-11-06T03:14:30.991Z,89.90
2017-11-06T03:17:32.848Z,90.20
2017-11-06T03:20:34.304Z,90.10
2017-11-06T03:23:35.805Z,89.70
2017-11-06T03:26:37.285Z,90.00
2017-11-06T03:29:39.415Z,88.90
2017-11-06T03:32:40.835Z,88.80
2017-11-06T03:35:42.316Z,90.00
2017-11-06T03:38:43.727Z,90.10
2017-11-06T03:41:45.203Z,89.00
2017-11-06T03:44:46.608Z,90.00
2017-11-06T03:50:56.954Z,90.00
2017-11-06T03:53:58.416Z,89.80
2017-11-06T03:56:59.872Z,90.40
2017-11-06T04:00:01.285Z,90.00
2017-11-06T04:03:02.779Z,90.20
2017-11-06T04:06:04.164Z,90.10
2017-11-06T04:09:05.627Z,89.60
2017-11-06T04:12:07.091Z,89.80
2017-11-06T04:15:08.536Z,89.80
2017-11-06T04:18:09.957Z,90.10
2017-11-06T04:21:11.391Z,90.20
2017-11-06T04:24:12.858Z,89.80
2017-11-06T04:27:14.983Z,90.20
2017-11-06T04:30:16.486Z,90.20
2017-11-06T04:33:18.678Z,90.30
2017-11-06T04:36:20.188Z,90.30
2017-11-06T04:39:21.696Z,90.10
2017-11-06T04:42:25.070Z,90.20
2017-11-06T04:45:27.278Z,90.20
2017-11-06T04:48:28.764Z,90.00
2017-11-06T04:51:30.234Z,90.30
2017-11-06T04:54:32.486Z,90.30
2017-11-06T04:57:34.736Z,90.10
2017-11-06T05:00:36.167Z,90.10
2017-11-06T05:03:37.671Z,90.10
2017-11-06T05:06:39.842Z,89.40
2017-11-06T05:09:42.015Z,89.50
2017-11-06T05:12:44.179Z,89.30
2017-11-06T05:15:46.415Z,89.40
2017-11-06T05:18:47.908Z,89.20
2017-11-06T05:21:50.051Z,89.20
2017-11-06T05:24:51.460Z,89.10
2017-11-06T05:27:52.904Z,88.80
2017-11-06T05:30:54.291Z,89.10
2017-11-06T05:33:55.672Z,89.00
2017-11-06T05:36:57.128Z,89.00
2017-11-06T05:39:58.536Z,89.50
2017-11-06T05:43:00.012Z,89.20
2017-11-06T05:46:01.479Z,89.70
2017-11-06T05:49:02.892Z,89.50
2017-11-06T05:52:04.333Z,90.40
2017-11-06T05:55:05.752Z,90.40
2017-11-06T05:58:08.003Z,90.40
2017-11-06T06:01:09.455Z,90.40
2017-11-06T06:04:10.911Z,90.20
2017-11-06T06:07:13.143Z,90.50
2017-11-06T06:10:14.537Z,90.40
2017-11-06T06:13:15.972Z,90.50
2017-11-06T06:16:17.519Z,90.40
2017-11-06T06:19:19.079Z,90.30
2017-11-06T06:22:20.498Z,90.60
2017-11-06T06:25:21.953Z,90.70
2017-11-06T06:28:23.427Z,90.50
2017-11-06T06:31:24.886Z,90.40
2017-11-06T06:34:26.387Z,90.40
2017-11-06T06:37:28.584Z,90.50
2017-11-06T06:40:30.048Z,90.40
2017-11-06T06:43:31.442Z,90.60
2017-11-06T06:46:32.825Z,90.60
2017-11-06T06:49:34.308Z,90.60
2017-11-06T06:52:35.739Z,90.70
2017-11-06T06:55:37.204Z,90.80
2017-11-06T06:58:38.630Z,90.40
2017-11-06T07:04:48.484Z,90.50
2017-11-06T07:07:50.747Z,90.80
2017-11-06T07:10:53.023Z,90.90
2017-11-06T07:13:55.227Z,90.90
2017-11-06T07:16:56.773Z,90.80
2017-11-06T07:19:58.251Z,91.00
2017-11-06T07:22:59.739Z,90.90
2017-11-06T07:26:01.183Z,90.70
2017-11-06T07:29:02.645Z,91.00
2017-11-06T07:32:04.819Z,91.20
2017-11-06T07:35:07.068Z,90.80
2017-11-06T07:38:08.508Z,91.10
2017-11-06T07:41:09.947Z,90.80
2017-11-06T07:44:11.389Z,90.70
2017-11-06T07:47:12.775Z,91.00
2017-11-06T07:50:14.234Z,91.30
2017-11-06T07:53:15.808Z,91.30
2017-11-06T07:56:17.344Z,91.20
2017-11-06T07:59:18.969Z,91.60
2017-11-06T08:02:20.602Z,91.50
2017-11-06T08:05:22.263Z,91.40
2017-11-06T08:08:23.846Z,91.10
2017-11-06T08:11:25.413Z,91.00
2017-11-06T08:14:26.984Z,91.50
2017-11-06T08:17:28.753Z,91.10
2017-11-06T08:20:30.784Z,91.10
2017-11-06T08:23:33.242Z,90.80
2017-11-06T08:26:35.021Z,90.60
2017-11-06T08:29:36.741Z,90.90
2017-11-06T08:32:38.544Z,90.70
2017-11-06T08:35:40.093Z,91.50
2017-11-06T08:38:41.552Z,91.50
2017-11-06T08:41:42.998Z,91.10
2017-11-06T08:44:44.424Z,91.20
2017-11-06T08:47:45.893Z,91.10
2017-11-06T08:50:47.403Z,90.90
2017-11-06T08:53:49.598Z,91.10
2017-11-06T08:56:51.114Z,90.90
2017-11-06T08:59:52.620Z,90.90
2017-11-06T09:02:54.114Z,91.00
2017-11-06T09:05:55.540Z,91.20
2017-11-06T09:08:57.335Z,91.20
2017-11-06T09:15:14.348Z,91.60
2017-11-06T09:18:16.247Z,91.60
2017-11-06T09:21:18.859Z,91.70
2017-11-06T09:24:22.100Z,91.70
2017-11-06T09:27:23.948Z,91.70
2017-11-06T09:30:25.458Z,91.40
2017-11-06T09:33:26.928Z,92.20
2017-11-06T09:36:28.451Z,91.40
2017-11-06T09:39:30.663Z,91.10
2017-11-06T09:42:32.168Z,91.00
2017-11-06T09:45:34.381Z,90.90
2017-11-06T09:48:35.843Z,90.90
2017-11-06T09:51:37.296Z,91.10
2017-11-06T09:54:38.811Z,91.30
2017-11-06T09:57:40.316Z,91.30
2017-11-06T10:00:41.840Z,91.40
2017-11-06T10:03:43.447Z,91.10
2017-11-06T10:06:45.753Z,91.90
2017-11-06T10:09:47.248Z,91.80
2017-11-06T10:12:48.800Z,91.10
2017-11-06T10:15:50.295Z,91.20
2017-11-06T10:18:52.563Z,91.70
2017-11-06T10:21:54.803Z,92.50
2017-11-06T10:24:56.341Z,92.40
2017-11-06T10:27:57.909Z,91.30
2017-11-06T10:30:59.488Z,91.90
2017-11-06T10:34:01.797Z,91.50
2017-11-06T10:37:03.299Z,91.40
2017-11-06T10:40:04.891Z,91.60
2017-11-06T10:43:07.157Z,91.30
2017-11-06T10:46:09.433Z,92.10
2017-11-06T10:49:11.715Z,91.40
2017-11-06T10:52:13.251Z,91.40
2017-11-06T10:55:15.535Z,91.20
2017-11-06T10:58:17.056Z,91.10
2017-11-06T11:01:18.601Z,91.40
2017-11-06T11:04:20.152Z,90.70
2017-11-06T11:07:21.604Z,90.90
2017-11-06T11:10:23.186Z,90.50
2017-11-06T11:13:24.700Z,90.90
2017-11-06T11:16:26.261Z,91.10
2017-11-06T11:19:27.821Z,90.70
2017-11-06T11:25:37.876Z,91.40
2017-11-06T11:28:39.389Z,91.60
2017-11-06T11:31:41.686Z,91.90
2017-11-06T11:34:43.190Z,91.80
2017-11-06T11:37:45.529Z,91.40
2017-11-06T11:43:55.379Z,90.80
2017-11-06T11:46:56.858Z,91.00
2017-11-06T11:49:58.372Z,90.80
2017-11-06T11:52:59.900Z,90.30
2017-11-06T11:56:02.125Z,90.20
2017-11-06T11:59:03.756Z,90.20
2017-11-06T12:02:05.268Z,91.00
2017-11-06T12:05:06.801Z,90.70
2017-11-06T12:08:08.319Z,90.70
2017-11-06T12:11:10.602Z,90.00
2017-11-06T12:14:12.088Z,90.00
2017-11-06T12:17:13.633Z,90.60
2017-11-06T12:20:15.182Z,90.60
2017-11-06T12:23:16.702Z,91.20
2017-11-06T12:26:19.001Z,90.20
2017-11-06T12:29:20.594Z,90.20
2017-11-06T12:32:22.241Z,89.70
2017-11-06T12:35:23.804Z,88.80
2017-11-06T12:38:25.370Z,89.60
2017-11-06T12:41:26.957Z,88.10
2017-11-06T12:44:28.469Z,88.90
2017-11-06T12:47:30.048Z,89.30
2017-11-06T12:50:32.305Z,89.70
2017-11-06T12:53:33.801Z,89.50
2017-11-06T12:56:35.451Z,89.00
2017-11-06T12:59:37.031Z,87.60
2017-11-06T13:02:38.530Z,88.80
2017-11-06T13:05:40.083Z,89.50
2017-11-06T13:08:41.638Z,89.30
2017-11-06T13:11:43.124Z,90.00
2017-11-06T13:14:44.667Z,89.50
2017-11-06T13:17:47.315Z,87.70
2017-11-06T13:20:49.152Z,87.50
2017-11-06T13:23:51.069Z,89.30
2017-11-06T13:26:53.779Z,90.00
2017-11-06T13:29:56.497Z,88.80
2017-11-06T13:32:58.458Z,88.50
2017-11-06T15:02:14.704Z,91.60
2017-11-06T15:05:16.811Z,92.10
2017-11-06T15:08:18.125Z,92.00
2017-11-06T15:11:20.234Z,92.50
2017-11-06T15:14:21.566Z,92.10
2017-11-06T15:17:22.918Z,92.10
2017-11-06T15:20:24.399Z,92.10
2017-11-06T15:23:25.774Z,92.10
2017-11-06T15:26:27.136Z,91.90
2017-11-06T15:29:28.464Z,91.80
2017-11-06T15:32:29.819Z,92.00
2017-11-06T15:35:31.190Z,91.90
2017-11-06T15:38:32.525Z,91.80
2017-11-06T15:41:33.837Z,91.80
2017-11-06T15:44:35.160Z,91.70
2017-11-06T15:47:36.529Z,91.60
2017-11-06T15:50:37.818Z,91.50
2017-11-06T15:53:39.145Z,91.50
2017-11-06T15:56:40.435Z,91.40
2017-11-06T15:59:41.770Z,91.40
2017-11-06T16:02:43.078Z,91.30
2017-11-06T16:05:44.480Z,91.20
2017-11-06T16:08:45.768Z,91.30
2017-11-06T16:11:47.109Z,91.00
2017-11-06T16:14:48.465Z,91.00
2017-11-06T16:17:49.777Z,93.20
2017-11-06T16:20:51.126Z,90.70
2017-11-06T16:23:52.414Z,91.00
2017-11-06T16:26:53.756Z,90.50
2017-11-06T16:29:55.391Z,90.40
2017-11-06T16:32:56.847Z,90.30
2017-11-06T16:35:59.262Z,90.20
2017-11-06T16:39:00.687Z,90.20
2017-11-06T16:42:02.783Z,90.00
2017-11-06T16:45:04.214Z,90.00
2017-11-06T16:48:06.368Z,89.70
2017-11-06T16:51:07.951Z,89.60
2017-11-06T16:54:10.052Z,89.40
2017-11-06T16:57:11.472Z,89.30
2017-11-06T17:00:12.880Z,89.10
2017-11-06T17:03:14.498Z,88.70
2017-11-06T17:06:16.078Z,88.50
2017-11-06T17:09:17.455Z,88.00
2017-11-06T17:12:18.863Z,88.50
2017-11-06T17:15:20.216Z,88.10
2017-11-06T17:18:23.815Z,88.10
2017-11-06T17:21:26.005Z,88.30
2017-11-06T17:24:29.006Z,88.40
2017-11-06T17:27:30.432Z,88.30
2017-11-06T17:30:33.578Z,87.80
2017-11-06T17:33:36.265Z,87.70
2017-11-06T17:36:46.000Z,87.90
2017-11-06T17:39:52.887Z,87.60
2017-11-06T17:42:55.257Z,87.50
2017-11-06T17:45:57.347Z,87.60
2017-11-06T17:48:58.814Z,87.70
2017-11-06T17:52:00.197Z,87.10
2017-11-06T17:55:01.918Z,86.90
2017-11-06T17:58:04.151Z,86.80
2017-11-06T18:01:05.659Z,86.70
2017-11-06T18:04:07.211Z,86.70
2017-11-06T18:07:08.975Z,87.10
2017-11-06T18:10:10.768Z,86.70
2017-11-06T18:13:12.315Z,86.80
2017-11-06T18:16:14.161Z,86.90
2017-11-06T18:19:16.467Z,86.90
2017-11-06T18:22:17.914Z,86.80
2017-11-06T18:25:19.347Z,86.90
2017-11-06T18:28:21.749Z,86.30
2017-11-06T18:31:23.303Z,86.20
2017-11-06T18:34:24.912Z,86.60
2017-11-06T18:37:26.406Z,86.70
2017-11-06T18:40:28.016Z,86.70
2017-11-06T18:43:29.355Z,88.30
2017-11-06T18:46:30.767Z,88.90
2017-11-06T18:49:32.835Z,88.50
2017-11-06T18:52:34.230Z,88.50
2017-11-06T18:55:35.562Z,88.60
2017-11-06T18:58:36.902Z,88.40
2017-11-06T19:01:38.231Z,88.60
2017-11-06T19:04:40.311Z,89.30
2017-11-06T19:07:42.413Z,90.00
2017-11-06T19:10:43.717Z,89.50
2017-11-06T19:13:45.223Z,90.00
2017-11-06T19:16:46.693Z,90.10
2017-11-06T19:19:48.167Z,92.40
2017-11-06T19:22:49.788Z,90.00
2017-11-06T19:25:51.187Z,89.40
2017-11-06T19:28:52.508Z,89.60
2017-11-06T19:31:54.154Z,90.00
2017-11-06T19:34:55.794Z,90.20
2017-11-06T19:37:57.275Z,90.30
2017-11-06T19:40:58.830Z,90.40
2017-11-06T19:44:00.442Z,90.60
2017-11-06T19:47:01.919Z,90.80
2017-11-06T19:50:04.065Z,90.60
2017-11-06T19:53:05.374Z,90.60
2017-11-06T19:56:06.745Z,90.80
2017-11-06T19:59:08.078Z,90.70
2017-11-06T20:02:09.492Z,90.70
2017-11-06T20:05:11.646Z,91.60
2017-11-06T20:08:13.686Z,91.30
2017-11-06T20:11:15.041Z,91.30
2017-11-06T20:14:17.983Z,91.50
2017-11-06T20:17:19.350Z,91.50
2017-11-06T20:20:20.676Z,91.60
2017-11-06T20:23:22.080Z,91.50
2017-11-06T20:26:23.710Z,91.40
2017-11-06T20:29:25.134Z,91.60
2017-11-06T20:32:26.560Z,91.70
2017-11-06T20:35:28.023Z,91.70
2017-11-06T20:38:30.199Z,91.60
2017-11-06T20:41:32.778Z,91.50
2017-11-06T20:44:34.901Z,91.60
2017-11-06T20:47:37.121Z,91.60
2017-11-06T20:50:38.542Z,91.60
2017-11-06T20:53:39.998Z,91.60
2017-11-06T20:56:41.421Z,91.70
2017-11-06T20:59:42.813Z,91.70
2017-11-06T21:02:44.906Z,91.90
2017-11-06T21:05:46.482Z,91.80
2017-11-06T21:08:47.792Z,91.80
2017-11-06T21:11:50.037Z,92.10
2017-11-06T21:14:52.357Z,92.00
2017-11-06T21:17:53.689Z,92.00
2017-11-06T21:20:56.095Z,92.10
2017-11-06T21:23:58.153Z,92.10
2017-11-06T21:26:59.748Z,92.10
2017-11-06T21:30:07.438Z,92.00
2017-11-06T21:33:08.865Z,92.20
2017-11-06T21:36:10.212Z,92.20
2017-11-06T21:39:11.664Z,92.30
2017-11-06T21:42:13.068Z,92.20
2017-11-06T21:45:14.489Z,92.30
2017-11-06T21:48:15.910Z,92.30
2017-11-06T21:51:17.977Z,92.10
2017-11-06T21:54:20.239Z,92.30
2017-11-06T21:57:22.331Z,92.30
2017-11-06T22:00:23.669Z,92.30
2017-11-06T22:03:26.003Z,92.50
2017-11-06T22:06:27.403Z,92.40
2017-11-06T22:09:28.795Z,92.10
2017-11-06T22:12:30.201Z,92.10
2017-11-06T22:15:31.711Z,92.10
2017-11-06T22:18:33.074Z,92.30
2017-11-06T22:21:34.413Z,92.40
2017-11-06T22:24:35.730Z,92.40
2017-11-06T22:27:37.038Z,92.20
2017-11-06T22:30:39.088Z,92.00
2017-11-06T22:33:40.476Z,92.00
2017-11-06T22:36:41.794Z,92.10
2017-11-06T22:39:43.158Z,91.70
2017-11-06T22:42:45.257Z,91.30
2017-11-06T22:45:46.556Z,91.20
2017-11-06T22:48:47.880Z,91.20
2017-11-06T22:51:49.202Z,91.10
2017-11-06T22:54:50.512Z,90.90
2017-11-06T22:57:52.578Z,90.80
2017-11-06T23:00:53.970Z,90.80
2017-11-06T23:03:55.307Z,90.80
2017-11-06T23:06:56.666Z,90.90
2017-11-06T23:09:58.656Z,90.90
2017-11-06T23:13:00.059Z,90.70
2017-11-06T23:16:02.608Z,90.10
2017-11-06T23:19:03.938Z,90.00
2017-11-06T23:22:06.199Z,90.00
2017-11-06T23:25:08.144Z,89.90
2017-11-06T23:28:09.917Z,90.00
2017-11-06T23:31:11.981Z,89.10
2017-11-06T23:34:13.402Z,89.30
2017-11-06T23:37:16.428Z,88.90
2017-11-06T23:40:17.790Z,88.90
2017-11-06T23:43:19.143Z,88.30
2017-11-06T23:46:21.056Z,88.30
2017-11-06T23:49:38.288Z,88.00
2017-11-06T23:52:39.633Z,88.00
2017-11-06T23:55:41.682Z,87.90
2017-11-06T23:58:43.604Z,87.90
